sensor_id;sensor_type;location;lat;lon;timestamp;P1;durP1;ratioP1;P2;durP2;ratioP2
39322;SDS011;25036;53.638;10.134;2022-12-22T00:00:55;19.35;;;12.73;;
39322;SDS011;25036;53.638;10.134;2022-12-22T00:02:18;14.55;;;10.80;;
39322;SDS011;25036;53.638;10.134;2022-12-22T00:03:37;15.57;;;10.93;;
39322;SDS011;25036;53.638;10.134;2022-12-22T00:04:56;12.93;;;10.57;;
39322;SDS011;25036;53.638;10.134;2022-12-22T00:06:15;15.65;;;12.00;;
39322;SDS011;25036;53.638;10.134;2022-12-22T00:07:33;15.50;;;11.88;;
39322;SDS011;25036;53.638;10.134;2022-12-22T00:08:52;15.38;;;11.35;;
39322;SDS011;25036;53.638;10.134;2022-12-22T00:10:11;19.02;;;11.68;;
39322;SDS011;25036;53.638;10.134;2022-12-22T00:11:29;13.38;;;10.55;;
39322;SDS011;25036;53.638;10.134;2022-12-22T00:12:48;14.10;;;11.18;;
39322;SDS011;25036;53.638;10.134;2022-12-22T00:14:07;15.30;;;10.90;;
39322;SDS011;25036;53.638;10.134;2022-12-22T00:15:27;14.90;;;11.30;;
39322;SDS011;25036;53.638;10.134;2022-12-22T00:16:48;17.65;;;11.75;;
39322;SDS011;25036;53.638;10.134;2022-12-22T00:18:10;13.02;;;10.73;;
39322;SDS011;25036;53.638;10.134;2022-12-22T00:19:30;16.05;;;10.95;;
39322;SDS011;25036;53.638;10.134;2022-12-22T00:20:49;13.75;;;10.15;;
39322;SDS011;25036;53.638;10.134;2022-12-22T00:22:17;14.90;;;10.68;;
39322;SDS011;25036;53.638;10.134;2022-12-22T00:23:36;15.10;;;10.80;;
39322;SDS011;25036;53.638;10.134;2022-12-22T00:24:55;13.80;;;10.60;;
39322;SDS011;25036;53.638;10.134;2022-12-22T00:26:14;13.57;;;10.50;;
39322;SDS011;25036;53.638;10.134;2022-12-22T00:27:33;15.57;;;11.07;;
39322;SDS011;25036;53.638;10.134;2022-12-22T00:28:52;16.25;;;11.55;;
39322;SDS011;25036;53.638;10.134;2022-12-22T00:30:12;14.32;;;10.25;;
39322;SDS011;25036;53.638;10.134;2022-12-22T00:31:32;14.15;;;10.35;;
39322;SDS011;25036;53.638;10.134;2022-12-22T00:32:51;15.07;;;10.77;;
39322;SDS011;25036;53.638;10.134;2022-12-22T00:34:17;15.35;;;10.88;;
39322;SDS011;25036;53.638;10.134;2022-12-22T00:35:36;13.18;;;10.80;;
39322;SDS011;25036;53.638;10.134;2022-12-22T00:36:54;11.95;;;9.82;;
39322;SDS011;25036;53.638;10.134;2022-12-22T00:38:17;17.52;;;11.82;;
39322;SDS011;25036;53.638;10.134;2022-12-22T00:39:37;15.02;;;10.70;;
39322;SDS011;25036;53.638;10.134;2022-12-22T00:40:56;14.80;;;10.63;;
39322;SDS011;25036;53.638;10.134;2022-12-22T00:42:15;16.27;;;12.13;;
39322;SDS011;25036;53.638;10.134;2022-12-22T00:43:34;15.45;;;10.88;;
39322;SDS011;25036;53.638;10.134;2022-12-22T00:44:53;16.25;;;10.68;;
39322;SDS011;25036;53.638;10.134;2022-12-22T00:46:13;15.18;;;11.50;;
39322;SDS011;25036;53.638;10.134;2022-12-22T00:48:51;17.15;;;11.32;;
39322;SDS011;25036;53.638;10.134;2022-12-22T00:50:11;14.32;;;10.60;;
39322;SDS011;25036;53.638;10.134;2022-12-22T00:51:29;14.95;;;11.02;;
39322;SDS011;25036;53.638;10.134;2022-12-22T00:52:49;18.90;;;10.80;;
39322;SDS011;25036;53.638;10.134;2022-12-22T00:54:08;13.68;;;11.50;;
39322;SDS011;25036;53.638;10.134;2022-12-22T00:55:28;14.20;;;11.43;;
39322;SDS011;25036;53.638;10.134;2022-12-22T00:56:47;13.77;;;10.60;;
39322;SDS011;25036;53.638;10.134;2022-12-22T00:58:09;14.63;;;10.25;;
39322;SDS011;25036;53.638;10.134;2022-12-22T00:59:30;16.17;;;10.57;;
39322;SDS011;25036;53.638;10.134;2022-12-22T01:00:49;12.27;;;10.20;;
39322;SDS011;25036;53.638;10.134;2022-12-22T01:02:08;13.10;;;10.32;;
39322;SDS011;25036;53.638;10.134;2022-12-22T01:03:26;14.30;;;10.77;;
39322;SDS011;25036;53.638;10.134;2022-12-22T01:04:45;11.90;;;10.30;;
39322;SDS011;25036;53.638;10.134;2022-12-22T01:06:05;14.23;;;10.90;;
39322;SDS011;25036;53.638;10.134;2022-12-22T01:07:26;14.60;;;10.77;;
39322;SDS011;25036;53.638;10.134;2022-12-22T01:08:45;13.43;;;10.63;;
39322;SDS011;25036;53.638;10.134;2022-12-22T01:10:04;12.85;;;9.73;;
39322;SDS011;25036;53.638;10.134;2022-12-22T01:11:23;13.20;;;9.93;;
39322;SDS011;25036;53.638;10.134;2022-12-22T01:12:43;13.15;;;9.40;;
39322;SDS011;25036;53.638;10.134;2022-12-22T01:14:02;11.30;;;9.05;;
39322;SDS011;25036;53.638;10.134;2022-12-22T01:15:21;18.05;;;10.65;;
39322;SDS011;25036;53.638;10.134;2022-12-22T01:16:40;11.38;;;9.68;;
39322;SDS011;25036;53.638;10.134;2022-12-22T01:17:59;13.07;;;9.95;;
39322;SDS011;25036;53.638;10.134;2022-12-22T01:19:18;11.02;;;9.60;;
39322;SDS011;25036;53.638;10.134;2022-12-22T01:20:37;12.45;;;9.15;;
39322;SDS011;25036;53.638;10.134;2022-12-22T01:21:56;11.23;;;8.18;;
39322;SDS011;25036;53.638;10.134;2022-12-22T01:23:15;11.07;;;9.30;;
39322;SDS011;25036;53.638;10.134;2022-12-22T01:24:33;11.60;;;9.45;;
39322;SDS011;25036;53.638;10.134;2022-12-22T01:25:52;11.40;;;9.05;;
39322;SDS011;25036;53.638;10.134;2022-12-22T01:27:13;10.98;;;9.32;;
39322;SDS011;25036;53.638;10.134;2022-12-22T01:28:32;9.80;;;8.73;;
39322;SDS011;25036;53.638;10.134;2022-12-22T01:29:51;10.90;;;8.90;;
39322;SDS011;25036;53.638;10.134;2022-12-22T01:31:17;10.43;;;8.40;;
39322;SDS011;25036;53.638;10.134;2022-12-22T01:32:36;12.02;;;8.40;;
39322;SDS011;25036;53.638;10.134;2022-12-22T01:33:55;10.00;;;8.63;;
39322;SDS011;25036;53.638;10.134;2022-12-22T01:35:21;13.07;;;9.13;;
39322;SDS011;25036;53.638;10.134;2022-12-22T01:36:40;12.15;;;8.40;;
39322;SDS011;25036;53.638;10.134;2022-12-22T01:37:59;9.85;;;8.23;;
39322;SDS011;25036;53.638;10.134;2022-12-22T01:39:18;10.85;;;8.48;;
39322;SDS011;25036;53.638;10.134;2022-12-22T01:40:37;12.80;;;9.13;;
39322;SDS011;25036;53.638;10.134;2022-12-22T01:41:56;11.30;;;8.80;;
39322;SDS011;25036;53.638;10.134;2022-12-22T01:44:39;9.65;;;8.30;;
39322;SDS011;25036;53.638;10.134;2022-12-22T01:46:16;9.15;;;8.15;;
39322;SDS011;25036;53.638;10.134;2022-12-22T01:47:34;10.13;;;8.52;;
39322;SDS011;25036;53.638;10.134;2022-12-22T01:48:53;9.95;;;8.75;;
39322;SDS011;25036;53.638;10.134;2022-12-22T01:50:16;9.85;;;8.85;;
39322;SDS011;25036;53.638;10.134;2022-12-22T01:51:35;11.30;;;8.73;;
39322;SDS011;25036;53.638;10.134;2022-12-22T01:52:54;12.30;;;8.68;;
39322;SDS011;25036;53.638;10.134;2022-12-22T01:54:13;10.93;;;9.20;;
39322;SDS011;25036;53.638;10.134;2022-12-22T01:55:31;10.60;;;9.50;;
39322;SDS011;25036;53.638;10.134;2022-12-22T01:56:50;10.82;;;9.13;;
39322;SDS011;25036;53.638;10.134;2022-12-22T01:58:32;10.40;;;8.93;;
39322;SDS011;25036;53.638;10.134;2022-12-22T01:59:48;12.25;;;9.38;;
39322;SDS011;25036;53.638;10.134;2022-12-22T02:01:07;12.23;;;8.88;;
39322;SDS011;25036;53.638;10.134;2022-12-22T02:02:25;11.10;;;9.13;;
39322;SDS011;25036;53.638;10.134;2022-12-22T02:03:44;11.55;;;9.65;;
39322;SDS011;25036;53.638;10.134;2022-12-22T02:05:03;9.88;;;8.85;;
39322;SDS011;25036;53.638;10.134;2022-12-22T02:06:30;11.30;;;9.02;;
39322;SDS011;25036;53.638;10.134;2022-12-22T02:09:39;9.93;;;8.80;;
39322;SDS011;25036;53.638;10.134;2022-12-22T02:12:32;11.93;;;9.45;;
39322;SDS011;25036;53.638;10.134;2022-12-22T02:14:04;11.73;;;9.18;;
39322;SDS011;25036;53.638;10.134;2022-12-22T02:15:28;10.57;;;9.18;;
39322;SDS011;25036;53.638;10.134;2022-12-22T02:18:24;9.20;;;8.23;;
39322;SDS011;25036;53.638;10.134;2022-12-22T02:21:11;13.57;;;9.38;;
39322;SDS011;25036;53.638;10.134;2022-12-22T02:22:34;10.95;;;8.80;;
39322;SDS011;25036;53.638;10.134;2022-12-22T02:24:08;9.55;;;8.55;;
39322;SDS011;25036;53.638;10.134;2022-12-22T02:25:44;11.25;;;8.73;;
39322;SDS011;25036;53.638;10.134;2022-12-22T02:27:05;10.07;;;7.90;;
39322;SDS011;25036;53.638;10.134;2022-12-22T02:28:24;9.77;;;8.80;;
39322;SDS011;25036;53.638;10.134;2022-12-22T02:30:00;9.85;;;7.72;;
39322;SDS011;25036;53.638;10.134;2022-12-22T02:31:20;9.77;;;8.35;;
39322;SDS011;25036;53.638;10.134;2022-12-22T02:32:40;10.15;;;8.68;;
39322;SDS011;25036;53.638;10.134;2022-12-22T02:33:59;12.77;;;8.90;;
39322;SDS011;25036;53.638;10.134;2022-12-22T02:35:18;10.77;;;9.68;;
39322;SDS011;25036;53.638;10.134;2022-12-22T02:36:52;10.75;;;9.40;;
39322;SDS011;25036;53.638;10.134;2022-12-22T02:38:24;11.20;;;9.20;;
39322;SDS011;25036;53.638;10.134;2022-12-22T02:39:57;13.65;;;11.32;;
39322;SDS011;25036;53.638;10.134;2022-12-22T02:42:51;15.45;;;11.90;;
39322;SDS011;25036;53.638;10.134;2022-12-22T02:45:39;12.75;;;10.63;;
39322;SDS011;25036;53.638;10.134;2022-12-22T02:47:00;12.00;;;9.00;;
39322;SDS011;25036;53.638;10.134;2022-12-22T02:48:22;12.55;;;10.25;;
39322;SDS011;25036;53.638;10.134;2022-12-22T02:50:16;10.80;;;9.80;;
39322;SDS011;25036;53.638;10.134;2022-12-22T02:51:27;10.70;;;9.45;;
39322;SDS011;25036;53.638;10.134;2022-12-22T02:52:47;11.33;;;9.80;;
39322;SDS011;25036;53.638;10.134;2022-12-22T02:54:06;12.93;;;10.13;;
39322;SDS011;25036;53.638;10.134;2022-12-22T02:55:25;10.50;;;9.25;;
39322;SDS011;25036;53.638;10.134;2022-12-22T02:56:45;9.70;;;8.70;;
39322;SDS011;25036;53.638;10.134;2022-12-22T02:58:04;10.70;;;8.52;;
39322;SDS011;25036;53.638;10.134;2022-12-22T02:59:23;9.75;;;8.63;;
39322;SDS011;25036;53.638;10.134;2022-12-22T03:00:42;8.38;;;7.50;;
39322;SDS011;25036;53.638;10.134;2022-12-22T03:02:00;8.65;;;7.75;;
39322;SDS011;25036;53.638;10.134;2022-12-22T03:03:19;9.90;;;7.97;;
39322;SDS011;25036;53.638;10.134;2022-12-22T03:04:38;9.10;;;8.20;;
39322;SDS011;25036;53.638;10.134;2022-12-22T03:05:57;9.13;;;8.05;;
39322;SDS011;25036;53.638;10.134;2022-12-22T03:07:16;8.85;;;7.95;;
39322;SDS011;25036;53.638;10.134;2022-12-22T03:08:34;9.57;;;8.20;;
39322;SDS011;25036;53.638;10.134;2022-12-22T03:09:53;9.57;;;7.88;;
39322;SDS011;25036;53.638;10.134;2022-12-22T03:11:12;9.43;;;8.52;;
39322;SDS011;25036;53.638;10.134;2022-12-22T03:12:31;7.80;;;7.10;;
39322;SDS011;25036;53.638;10.134;2022-12-22T03:13:50;8.43;;;7.00;;
39322;SDS011;25036;53.638;10.134;2022-12-22T03:15:09;7.70;;;6.95;;
39322;SDS011;25036;53.638;10.134;2022-12-22T03:16:28;8.30;;;7.50;;
39322;SDS011;25036;53.638;10.134;2022-12-22T03:17:47;7.53;;;6.82;;
39322;SDS011;25036;53.638;10.134;2022-12-22T03:19:05;9.57;;;7.05;;
39322;SDS011;25036;53.638;10.134;2022-12-22T03:20:24;8.52;;;7.65;;
39322;SDS011;25036;53.638;10.134;2022-12-22T03:21:43;7.85;;;7.05;;
39322;SDS011;25036;53.638;10.134;2022-12-22T03:23:05;7.35;;;6.72;;
39322;SDS011;25036;53.638;10.134;2022-12-22T03:24:24;8.05;;;7.15;;
39322;SDS011;25036;53.638;10.134;2022-12-22T03:25:43;7.65;;;6.95;;
39322;SDS011;25036;53.638;10.134;2022-12-22T03:26:53;8.13;;;7.20;;
39322;SDS011;25036;53.638;10.134;2022-12-22T03:27:53;7.88;;;7.10;;
39322;SDS011;25036;53.638;10.134;2022-12-22T03:28:53;7.73;;;6.93;;
39322;SDS011;25036;53.638;10.134;2022-12-22T03:29:53;7.75;;;7.10;;
39322;SDS011;25036;53.638;10.134;2022-12-22T03:31:54;7.57;;;6.88;;
39322;SDS011;25036;53.638;10.134;2022-12-22T03:32:54;9.23;;;7.43;;
39322;SDS011;25036;53.638;10.134;2022-12-22T03:33:54;7.38;;;6.68;;
39322;SDS011;25036;53.638;10.134;2022-12-22T03:34:54;7.55;;;6.82;;
39322;SDS011;25036;53.638;10.134;2022-12-22T03:35:54;6.97;;;6.33;;
39322;SDS011;25036;53.638;10.134;2022-12-22T03:36:55;6.88;;;6.22;;
39322;SDS011;25036;53.638;10.134;2022-12-22T03:37:55;7.07;;;6.37;;
39322;SDS011;25036;53.638;10.134;2022-12-22T03:38:55;6.20;;;5.60;;
39322;SDS011;25036;53.638;10.134;2022-12-22T03:39:55;7.57;;;6.77;;
39322;SDS011;25036;53.638;10.134;2022-12-22T03:40:55;6.73;;;6.13;;
39322;SDS011;25036;53.638;10.134;2022-12-22T03:41:55;7.22;;;6.53;;
39322;SDS011;25036;53.638;10.134;2022-12-22T03:43:15;7.28;;;6.57;;
39322;SDS011;25036;53.638;10.134;2022-12-22T03:44:34;7.87;;;6.60;;
39322;SDS011;25036;53.638;10.134;2022-12-22T03:45:53;6.80;;;6.10;;
39322;SDS011;25036;53.638;10.134;2022-12-22T03:47:13;7.03;;;6.32;;
39322;SDS011;25036;53.638;10.134;2022-12-22T03:48:13;6.40;;;5.67;;
39322;SDS011;25036;53.638;10.134;2022-12-22T03:49:13;7.43;;;5.70;;
39322;SDS011;25036;53.638;10.134;2022-12-22T03:50:13;6.13;;;5.55;;
39322;SDS011;25036;53.638;10.134;2022-12-22T03:51:13;5.87;;;5.33;;
39322;SDS011;25036;53.638;10.134;2022-12-22T03:52:13;5.50;;;5.07;;
39322;SDS011;25036;53.638;10.134;2022-12-22T03:53:13;6.10;;;5.50;;
39322;SDS011;25036;53.638;10.134;2022-12-22T03:54:15;6.00;;;5.50;;
39322;SDS011;25036;53.638;10.134;2022-12-22T03:55:15;5.90;;;4.88;;
39322;SDS011;25036;53.638;10.134;2022-12-22T03:56:15;5.70;;;5.20;;
39322;SDS011;25036;53.638;10.134;2022-12-22T03:57:15;5.40;;;4.90;;
39322;SDS011;25036;53.638;10.134;2022-12-22T03:58:15;5.40;;;4.90;;
39322;SDS011;25036;53.638;10.134;2022-12-22T03:59:16;5.50;;;5.00;;
39322;SDS011;25036;53.638;10.134;2022-12-22T04:00:16;5.60;;;5.10;;
39322;SDS011;25036;53.638;10.134;2022-12-22T04:01:17;6.53;;;5.38;;
39322;SDS011;25036;53.638;10.134;2022-12-22T04:02:17;6.13;;;4.83;;
39322;SDS011;25036;53.638;10.134;2022-12-22T04:03:17;4.73;;;4.30;;
39322;SDS011;25036;53.638;10.134;2022-12-22T04:04:18;5.37;;;4.87;;
39322;SDS011;25036;53.638;10.134;2022-12-22T04:05:18;6.75;;;5.93;;
39322;SDS011;25036;53.638;10.134;2022-12-22T04:06:18;6.70;;;5.87;;
39322;SDS011;25036;53.638;10.134;2022-12-22T04:07:18;7.80;;;7.00;;
39322;SDS011;25036;53.638;10.134;2022-12-22T04:08:19;11.97;;;8.87;;
39322;SDS011;25036;53.638;10.134;2022-12-22T04:09:19;11.40;;;8.23;;
39322;SDS011;25036;53.638;10.134;2022-12-22T04:10:21;15.35;;;9.23;;
39322;SDS011;25036;53.638;10.134;2022-12-22T04:11:39;11.95;;;8.30;;
39322;SDS011;25036;53.638;10.134;2022-12-22T04:12:58;10.60;;;8.68;;
39322;SDS011;25036;53.638;10.134;2022-12-22T04:13:58;10.50;;;9.27;;
39322;SDS011;25036;53.638;10.134;2022-12-22T04:14:58;9.82;;;8.48;;
39322;SDS011;25036;53.638;10.134;2022-12-22T04:15:59;8.77;;;7.50;;
39322;SDS011;25036;53.638;10.134;2022-12-22T04:16:59;7.00;;;6.30;;
39322;SDS011;25036;53.638;10.134;2022-12-22T04:17:59;6.88;;;6.28;;
39322;SDS011;25036;53.638;10.134;2022-12-22T04:18:59;7.07;;;6.38;;
39322;SDS011;25036;53.638;10.134;2022-12-22T04:19:59;6.13;;;5.53;;
39322;SDS011;25036;53.638;10.134;2022-12-22T04:20:59;8.27;;;7.40;;
39322;SDS011;25036;53.638;10.134;2022-12-22T04:22:00;7.97;;;7.27;;
39322;SDS011;25036;53.638;10.134;2022-12-22T04:23:00;7.55;;;6.72;;
39322;SDS011;25036;53.638;10.134;2022-12-22T04:24:00;7.47;;;6.45;;
39322;SDS011;25036;53.638;10.134;2022-12-22T04:25:00;7.32;;;6.72;;
39322;SDS011;25036;53.638;10.134;2022-12-22T04:26:01;8.10;;;7.30;;
39322;SDS011;25036;53.638;10.134;2022-12-22T04:27:01;7.67;;;6.97;;
39322;SDS011;25036;53.638;10.134;2022-12-22T04:28:01;8.83;;;7.93;;
39322;SDS011;25036;53.638;10.134;2022-12-22T04:29:01;8.87;;;7.93;;
39322;SDS011;25036;53.638;10.134;2022-12-22T04:30:02;10.00;;;8.63;;
39322;SDS011;25036;53.638;10.134;2022-12-22T04:31:02;7.28;;;6.53;;
39322;SDS011;25036;53.638;10.134;2022-12-22T04:32:02;7.50;;;6.70;;
39322;SDS011;25036;53.638;10.134;2022-12-22T04:33:02;7.82;;;6.20;;
39322;SDS011;25036;53.638;10.134;2022-12-22T04:34:02;7.55;;;6.85;;
39322;SDS011;25036;53.638;10.134;2022-12-22T04:35:03;7.07;;;6.47;;
39322;SDS011;25036;53.638;10.134;2022-12-22T04:36:04;7.22;;;6.53;;
39322;SDS011;25036;53.638;10.134;2022-12-22T04:37:04;6.75;;;6.03;;
39322;SDS011;25036;53.638;10.134;2022-12-22T04:38:04;7.07;;;6.37;;
39322;SDS011;25036;53.638;10.134;2022-12-22T04:39:04;7.40;;;6.67;;
39322;SDS011;25036;53.638;10.134;2022-12-22T04:40:04;8.80;;;7.63;;
39322;SDS011;25036;53.638;10.134;2022-12-22T04:41:05;7.82;;;7.03;;
39322;SDS011;25036;53.638;10.134;2022-12-22T04:42:05;7.25;;;6.57;;
39322;SDS011;25036;53.638;10.134;2022-12-22T04:43:05;7.33;;;6.70;;
39322;SDS011;25036;53.638;10.134;2022-12-22T04:44:05;7.00;;;6.40;;
39322;SDS011;25036;53.638;10.134;2022-12-22T04:45:06;6.93;;;6.23;;
39322;SDS011;25036;53.638;10.134;2022-12-22T04:46:06;8.15;;;7.45;;
39322;SDS011;25036;53.638;10.134;2022-12-22T04:47:06;8.03;;;7.23;;
39322;SDS011;25036;53.638;10.134;2022-12-22T04:48:06;8.10;;;7.40;;
39322;SDS011;25036;53.638;10.134;2022-12-22T04:49:06;6.90;;;6.27;;
39322;SDS011;25036;53.638;10.134;2022-12-22T04:50:07;7.20;;;6.50;;
39322;SDS011;25036;53.638;10.134;2022-12-22T04:51:07;7.55;;;6.82;;
39322;SDS011;25036;53.638;10.134;2022-12-22T04:52:07;8.87;;;8.07;;
39322;SDS011;25036;53.638;10.134;2022-12-22T04:53:07;9.68;;;8.60;;
39322;SDS011;25036;53.638;10.134;2022-12-22T04:54:07;9.48;;;8.38;;
39322;SDS011;25036;53.638;10.134;2022-12-22T04:55:08;7.07;;;6.43;;
39322;SDS011;25036;53.638;10.134;2022-12-22T04:56:08;5.90;;;5.40;;
39322;SDS011;25036;53.638;10.134;2022-12-22T04:57:08;6.90;;;5.70;;
39322;SDS011;25036;53.638;10.134;2022-12-22T04:58:08;6.00;;;5.50;;
39322;SDS011;25036;53.638;10.134;2022-12-22T04:59:08;5.63;;;5.13;;
39322;SDS011;25036;53.638;10.134;2022-12-22T05:00:09;6.60;;;5.90;;
39322;SDS011;25036;53.638;10.134;2022-12-22T05:01:10;5.82;;;5.32;;
39322;SDS011;25036;53.638;10.134;2022-12-22T05:02:11;5.72;;;5.22;;
39322;SDS011;25036;53.638;10.134;2022-12-22T05:03:11;5.63;;;5.23;;
39322;SDS011;25036;53.638;10.134;2022-12-22T05:04:11;5.60;;;5.07;;
39322;SDS011;25036;53.638;10.134;2022-12-22T05:05:11;6.20;;;5.63;;
39322;SDS011;25036;53.638;10.134;2022-12-22T05:06:11;6.73;;;6.13;;
39322;SDS011;25036;53.638;10.134;2022-12-22T05:07:11;6.90;;;6.05;;
39322;SDS011;25036;53.638;10.134;2022-12-22T05:08:11;6.20;;;5.60;;
39322;SDS011;25036;53.638;10.134;2022-12-22T05:09:12;6.07;;;5.50;;
39322;SDS011;25036;53.638;10.134;2022-12-22T05:10:12;5.95;;;5.40;;
39322;SDS011;25036;53.638;10.134;2022-12-22T05:11:12;5.53;;;5.03;;
39322;SDS011;25036;53.638;10.134;2022-12-22T05:12:12;6.20;;;5.60;;
39322;SDS011;25036;53.638;10.134;2022-12-22T05:13:31;6.68;;;5.90;;
39322;SDS011;25036;53.638;10.134;2022-12-22T05:14:31;6.78;;;6.18;;
39322;SDS011;25036;53.638;10.134;2022-12-22T05:15:32;6.97;;;6.27;;
39322;SDS011;25036;53.638;10.134;2022-12-22T05:16:33;6.72;;;6.03;;
39322;SDS011;25036;53.638;10.134;2022-12-22T05:17:33;6.27;;;5.77;;
39322;SDS011;25036;53.638;10.134;2022-12-22T05:18:34;6.97;;;6.30;;
39322;SDS011;25036;53.638;10.134;2022-12-22T05:19:34;6.28;;;5.68;;
39322;SDS011;25036;53.638;10.134;2022-12-22T05:20:34;6.17;;;5.60;;
39322;SDS011;25036;53.638;10.134;2022-12-22T05:21:35;6.90;;;6.15;;
39322;SDS011;25036;53.638;10.134;2022-12-22T05:22:35;6.20;;;5.60;;
39322;SDS011;25036;53.638;10.134;2022-12-22T05:23:35;6.67;;;6.07;;
39322;SDS011;25036;53.638;10.134;2022-12-22T05:24:35;7.45;;;6.65;;
39322;SDS011;25036;53.638;10.134;2022-12-22T05:25:35;7.00;;;6.40;;
39322;SDS011;25036;53.638;10.134;2022-12-22T05:26:35;7.00;;;6.40;;
39322;SDS011;25036;53.638;10.134;2022-12-22T05:27:35;6.80;;;6.00;;
39322;SDS011;25036;53.638;10.134;2022-12-22T05:28:36;6.97;;;6.28;;
39322;SDS011;25036;53.638;10.134;2022-12-22T05:29:36;7.65;;;6.50;;
39322;SDS011;25036;53.638;10.134;2022-12-22T05:30:36;6.90;;;6.27;;
39322;SDS011;25036;53.638;10.134;2022-12-22T05:31:36;7.00;;;6.40;;
39322;SDS011;25036;53.638;10.134;2022-12-22T05:32:36;7.50;;;6.80;;
39322;SDS011;25036;53.638;10.134;2022-12-22T05:33:37;6.57;;;5.97;;
39322;SDS011;25036;53.638;10.134;2022-12-22T05:34:37;8.20;;;6.73;;
39322;SDS011;25036;53.638;10.134;2022-12-22T05:35:37;7.30;;;6.60;;
39322;SDS011;25036;53.638;10.134;2022-12-22T05:36:37;7.87;;;7.10;;
39322;SDS011;25036;53.638;10.134;2022-12-22T05:37:37;7.33;;;6.73;;
39322;SDS011;25036;53.638;10.134;2022-12-22T05:38:37;7.78;;;7.07;;
39322;SDS011;25036;53.638;10.134;2022-12-22T05:39:38;7.85;;;7.05;;
39322;SDS011;25036;53.638;10.134;2022-12-22T05:40:39;8.37;;;7.57;;
39322;SDS011;25036;53.638;10.134;2022-12-22T05:41:39;7.23;;;6.47;;
39322;SDS011;25036;53.638;10.134;2022-12-22T05:42:39;7.37;;;6.73;;
39322;SDS011;25036;53.638;10.134;2022-12-22T05:43:39;8.68;;;7.13;;
39322;SDS011;25036;53.638;10.134;2022-12-22T05:44:40;7.78;;;6.97;;
39322;SDS011;25036;53.638;10.134;2022-12-22T05:45:40;8.30;;;7.50;;
39322;SDS011;25036;53.638;10.134;2022-12-22T05:46:40;7.30;;;6.70;;
39322;SDS011;25036;53.638;10.134;2022-12-22T05:47:50;7.67;;;6.60;;
39322;SDS011;25036;53.638;10.134;2022-12-22T05:48:50;7.20;;;6.50;;
39322;SDS011;25036;53.638;10.134;2022-12-22T05:49:50;8.03;;;7.23;;
39322;SDS011;25036;53.638;10.134;2022-12-22T05:50:50;8.27;;;7.47;;
39322;SDS011;25036;53.638;10.134;2022-12-22T05:51:50;8.10;;;7.30;;
39322;SDS011;25036;53.638;10.134;2022-12-22T05:52:53;8.48;;;7.07;;
39322;SDS011;25036;53.638;10.134;2022-12-22T05:53:53;8.52;;;7.50;;
39322;SDS011;25036;53.638;10.134;2022-12-22T05:54:53;8.43;;;7.47;;
39322;SDS011;25036;53.638;10.134;2022-12-22T05:55:53;7.70;;;7.05;;
39322;SDS011;25036;53.638;10.134;2022-12-22T05:56:54;8.73;;;7.80;;
39322;SDS011;25036;53.638;10.134;2022-12-22T05:57:54;9.63;;;7.87;;
39322;SDS011;25036;53.638;10.134;2022-12-22T05:58:54;9.70;;;7.97;;
39322;SDS011;25036;53.638;10.134;2022-12-22T05:59:54;9.33;;;8.43;;
39322;SDS011;25036;53.638;10.134;2022-12-22T06:00:55;9.60;;;8.65;;
39322;SDS011;25036;53.638;10.134;2022-12-22T06:01:56;9.45;;;8.48;;
39322;SDS011;25036;53.638;10.134;2022-12-22T06:02:56;9.17;;;8.20;;
39322;SDS011;25036;53.638;10.134;2022-12-22T06:03:56;8.70;;;7.90;;
39322;SDS011;25036;53.638;10.134;2022-12-22T06:04:56;9.87;;;8.97;;
39322;SDS011;25036;53.638;10.134;2022-12-22T06:05:57;9.48;;;8.55;;
39322;SDS011;25036;53.638;10.134;2022-12-22T06:06:57;10.38;;;8.20;;
39322;SDS011;25036;53.638;10.134;2022-12-22T06:07:57;9.30;;;8.40;;
39322;SDS011;25036;53.638;10.134;2022-12-22T06:08:57;8.80;;;7.53;;
39322;SDS011;25036;53.638;10.134;2022-12-22T06:09:57;9.13;;;8.23;;
39322;SDS011;25036;53.638;10.134;2022-12-22T06:10:57;8.30;;;7.60;;
39322;SDS011;25036;53.638;10.134;2022-12-22T06:11:58;7.97;;;7.28;;
39322;SDS011;25036;53.638;10.134;2022-12-22T06:12:58;8.33;;;7.37;;
39322;SDS011;25036;53.638;10.134;2022-12-22T06:13:58;9.37;;;7.93;;
39322;SDS011;25036;53.638;10.134;2022-12-22T06:14:58;8.37;;;7.63;;
39322;SDS011;25036;53.638;10.134;2022-12-22T06:15:58;8.90;;;8.03;;
39322;SDS011;25036;53.638;10.134;2022-12-22T06:16:58;7.83;;;7.10;;
39322;SDS011;25036;53.638;10.134;2022-12-22T06:17:58;9.52;;;8.30;;
39322;SDS011;25036;53.638;10.134;2022-12-22T06:18:59;8.83;;;7.33;;
39322;SDS011;25036;53.638;10.134;2022-12-22T06:19:59;8.63;;;7.83;;
39322;SDS011;25036;53.638;10.134;2022-12-22T06:20:59;9.03;;;8.23;;
39322;SDS011;25036;53.638;10.134;2022-12-22T06:21:59;9.17;;;8.33;;
39322;SDS011;25036;53.638;10.134;2022-12-22T06:22:59;9.30;;;8.50;;
39322;SDS011;25036;53.638;10.134;2022-12-22T06:23:59;8.67;;;7.87;;
39322;SDS011;25036;53.638;10.134;2022-12-22T06:24:59;9.30;;;8.45;;
39322;SDS011;25036;53.638;10.134;2022-12-22T06:26:00;10.33;;;9.07;;
39322;SDS011;25036;53.638;10.134;2022-12-22T06:27:00;9.50;;;8.60;;
39322;SDS011;25036;53.638;10.134;2022-12-22T06:28:00;10.13;;;8.20;;
39322;SDS011;25036;53.638;10.134;2022-12-22T06:29:00;9.83;;;8.43;;
39322;SDS011;25036;53.638;10.134;2022-12-22T06:30:01;9.40;;;8.57;;
39322;SDS011;25036;53.638;10.134;2022-12-22T06:31:01;10.87;;;9.80;;
39322;SDS011;25036;53.638;10.134;2022-12-22T06:32:01;9.53;;;8.63;;
39322;SDS011;25036;53.638;10.134;2022-12-22T06:33:01;9.85;;;8.85;;
39322;SDS011;25036;53.638;10.134;2022-12-22T06:34:02;9.75;;;8.75;;
39322;SDS011;25036;53.638;10.134;2022-12-22T06:35:03;8.93;;;8.13;;
39322;SDS011;25036;53.638;10.134;2022-12-22T06:36:04;9.40;;;8.60;;
39322;SDS011;25036;53.638;10.134;2022-12-22T06:37:05;9.88;;;8.98;;
39322;SDS011;25036;53.638;10.134;2022-12-22T06:38:05;11.13;;;9.17;;
39322;SDS011;25036;53.638;10.134;2022-12-22T06:39:05;11.20;;;10.10;;
39322;SDS011;25036;53.638;10.134;2022-12-22T06:40:06;10.35;;;9.45;;
39322;SDS011;25036;53.638;10.134;2022-12-22T06:41:06;10.35;;;9.40;;
39322;SDS011;25036;53.638;10.134;2022-12-22T06:42:07;11.50;;;10.30;;
39322;SDS011;25036;53.638;10.134;2022-12-22T06:43:28;10.50;;;9.40;;
39322;SDS011;25036;53.638;10.134;2022-12-22T06:44:28;10.70;;;9.50;;
39322;SDS011;25036;53.638;10.134;2022-12-22T06:45:28;10.03;;;9.13;;
39322;SDS011;25036;53.638;10.134;2022-12-22T06:46:28;11.67;;;10.50;;
39322;SDS011;25036;53.638;10.134;2022-12-22T06:47:29;11.23;;;10.13;;
39322;SDS011;25036;53.638;10.134;2022-12-22T06:48:29;11.23;;;9.97;;
39322;SDS011;25036;53.638;10.134;2022-12-22T06:49:29;12.68;;;9.82;;
39322;SDS011;25036;53.638;10.134;2022-12-22T06:50:29;12.80;;;11.07;;
39322;SDS011;25036;53.638;10.134;2022-12-22T06:51:29;11.87;;;10.67;;
39322;SDS011;25036;53.638;10.134;2022-12-22T06:52:29;11.83;;;10.63;;
39322;SDS011;25036;53.638;10.134;2022-12-22T06:53:29;12.43;;;11.23;;
39322;SDS011;25036;53.638;10.134;2022-12-22T06:54:29;11.93;;;10.83;;
39322;SDS011;25036;53.638;10.134;2022-12-22T06:55:30;10.97;;;9.97;;
39322;SDS011;25036;53.638;10.134;2022-12-22T06:56:30;10.57;;;9.60;;
39322;SDS011;25036;53.638;10.134;2022-12-22T06:57:30;10.85;;;9.85;;
39322;SDS011;25036;53.638;10.134;2022-12-22T06:58:30;11.13;;;10.00;;
39322;SDS011;25036;53.638;10.134;2022-12-22T06:59:30;11.70;;;10.50;;